createdAt,value
2022-10-01T00:00:00.846Z,86.08
2022-10-01T00:03:03.856Z,86.10
2022-10-01T00:06:10.483Z,86.09
2022-10-01T00:09:13.427Z,86.09
2022-10-01T00:12:16.844Z,86.11
2022-10-01T00:15:21.783Z,86.09
2022-10-01T00:18:24.744Z,86.06
2022-10-01T00:21:32.768Z,86.05
2022-10-01T00:24:37.731Z,86.04
2022-10-01T00:27:40.885Z,85.97
2022-10-01T00:30:48.097Z,85.93
2022-10-01T00:33:55.867Z,85.93
2022-10-01T00:36:58.807Z,85.89
2022-10-01T00:40:02.097Z,85.82
2022-10-01T00:43:23.228Z,85.79
2022-10-01T00:46:44.499Z,85.80
2022-10-01T00:49:49.986Z,85.81
2022-10-01T00:52:57.062Z,85.78
2022-10-01T00:56:00.724Z,85.78
2022-10-01T00:59:05.106Z,85.72
2022-10-01T01:02:08.179Z,85.71
2022-10-01T01:05:13.664Z,85.69
2022-10-01T01:08:17.944Z,85.68
2022-10-01T01:11:34.202Z,85.68
2022-10-01T01:14:43.716Z,85.69
2022-10-01T01:17:57.774Z,85.63
2022-10-01T01:21:11.858Z,85.62
2022-10-01T01:24:39.617Z,85.58
2022-10-01T01:28:22.846Z,85.53
2022-10-01T01:31:33.897Z,85.51
2022-10-01T01:34:39.846Z,85.46
2022-10-01T01:37:48.941Z,85.41
2022-10-01T01:40:55.861Z,85.34
2022-10-01T01:44:02.632Z,85.32
2022-10-01T01:47:10.575Z,85.30
2022-10-01T01:50:15.826Z,85.27
2022-10-01T01:53:20.271Z,85.23
2022-10-01T01:56:23.996Z,85.19
2022-10-01T01:59:27.257Z,85.16
2022-10-01T02:02:36.139Z,85.12
2022-10-01T02:05:49.061Z,85.10
2022-10-01T02:09:01.620Z,85.08
2022-10-01T02:12:31.787Z,85.01
2022-10-01T02:15:55.316Z,84.96
2022-10-01T02:19:41.232Z,84.93
2022-10-01T02:23:03.149Z,84.97
2022-10-01T02:26:12.642Z,84.95
2022-10-01T02:29:19.819Z,84.96
2022-10-01T02:32:24.177Z,84.92
2022-10-01T02:35:31.079Z,84.91
2022-10-01T02:38:37.392Z,84.86
2022-10-01T02:41:43.322Z,84.81
2022-10-01T02:44:49.009Z,84.80
2022-10-01T02:48:02.144Z,84.78
2022-10-01T02:51:33.213Z,84.80
2022-10-01T02:54:49.084Z,84.82
2022-10-01T02:57:52.044Z,84.81
2022-10-01T03:00:54.947Z,84.78
2022-10-01T03:03:57.782Z,84.75
2022-10-01T03:07:03.929Z,84.70
2022-10-01T03:10:08.912Z,84.65
2022-10-01T03:13:11.706Z,84.63
2022-10-01T03:16:14.615Z,84.60
2022-10-01T03:19:17.691Z,84.59
2022-10-01T03:22:22.770Z,84.57
2022-10-01T03:25:25.749Z,84.53
2022-10-01T03:28:28.724Z,84.45
2022-10-01T03:31:32.124Z,84.42
2022-10-01T03:34:35.269Z,84.38
2022-10-01T03:37:38.203Z,84.28
2022-10-01T03:40:41.048Z,84.18
2022-10-01T03:43:43.930Z,84.07
2022-10-01T03:46:46.871Z,84.03
2022-10-01T03:49:50.026Z,83.97
2022-10-01T03:52:52.871Z,83.96
2022-10-01T03:55:55.811Z,83.93
2022-10-01T03:58:58.818Z,83.91
2022-10-01T04:02:01.841Z,83.90
2022-10-01T04:05:05.583Z,83.82
2022-10-01T04:08:08.665Z,83.74
2022-10-01T04:11:11.993Z,83.67
2022-10-01T04:14:14.960Z,83.59
2022-10-01T04:17:17.981Z,83.54
2022-10-01T04:20:21.056Z,83.45
2022-10-01T04:23:24.604Z,83.34
2022-10-01T04:26:27.558Z,83.34
2022-10-01T04:29:30.697Z,83.33
2022-10-01T04:32:33.759Z,83.33
2022-10-01T04:35:36.668Z,83.36
2022-10-01T04:38:39.735Z,83.41
2022-10-01T04:41:42.581Z,83.45
2022-10-01T04:44:45.402Z,83.46
2022-10-01T04:47:53.225Z,83.46
2022-10-01T04:50:56.105Z,83.48
2022-10-01T04:53:58.923Z,83.44
2022-10-01T04:57:01.832Z,83.51
2022-10-01T05:00:07.463Z,83.56
2022-10-01T05:03:11.094Z,83.58
2022-10-01T05:06:14.664Z,83.58
2022-10-01T05:09:17.569Z,83.61
2022-10-01T05:12:24.426Z,83.65
2022-10-01T05:15:28.267Z,83.66
2022-10-01T05:18:31.755Z,83.70
2022-10-01T05:21:35.249Z,83.74
2022-10-01T05:24:39.013Z,83.68
2022-10-01T05:27:42.312Z,83.66
2022-10-01T05:30:45.785Z,83.66
2022-10-01T05:33:48.617Z,83.68
2022-10-01T05:36:51.422Z,83.69
2022-10-01T05:39:54.372Z,83.67
2022-10-01T05:42:58.818Z,83.65
2022-10-01T05:46:03.786Z,83.62
2022-10-01T05:49:08.388Z,83.58
2022-10-01T05:52:12.554Z,83.59
2022-10-01T05:55:15.850Z,83.65
2022-10-01T05:58:18.743Z,83.71
2022-10-01T06:01:21.727Z,83.75
2022-10-01T06:04:24.701Z,83.76
2022-10-01T06:07:31.321Z,83.75
2022-10-01T06:10:35.127Z,83.75
2022-10-01T06:13:38.104Z,83.78
2022-10-01T06:16:41.036Z,83.86
2022-10-01T06:19:43.864Z,83.97
2022-10-01T06:22:54.970Z,84.10
2022-10-01T06:26:00.531Z,84.21
2022-10-01T06:29:03.692Z,84.30
2022-10-01T06:32:08.026Z,84.38
2022-10-01T06:35:10.899Z,84.49
2022-10-01T06:38:15.070Z,84.59
2022-10-01T06:41:18.667Z,84.65
2022-10-01T06:44:22.274Z,84.73
2022-10-01T06:47:25.237Z,84.81
2022-10-01T06:50:29.214Z,84.89
2022-10-01T06:53:32.737Z,84.94
2022-10-01T06:56:42.865Z,85.00
2022-10-01T06:59:45.715Z,85.08
2022-10-01T07:02:48.950Z,85.19
2022-10-01T07:05:51.941Z,85.22
2022-10-01T07:08:55.521Z,85.23
2022-10-01T07:11:58.375Z,85.24
2022-10-01T07:15:02.206Z,85.28
2022-10-01T07:18:05.892Z,85.31
2022-10-01T07:21:08.922Z,85.31
2022-10-01T07:24:11.752Z,85.35
2022-10-01T07:27:14.813Z,85.40
2022-10-01T07:30:17.997Z,85.48
2022-10-01T07:33:21.140Z,85.58
2022-10-01T07:36:24.577Z,85.68
2022-10-01T07:39:27.516Z,85.76
2022-10-01T07:42:31.299Z,85.81
2022-10-01T07:45:34.158Z,85.81
2022-10-01T07:48:37.891Z,85.88
2022-10-01T07:51:43.586Z,85.90
2022-10-01T07:54:48.194Z,85.88
2022-10-01T07:57:57.399Z,85.93
2022-10-01T08:01:06.052Z,86.01
2022-10-01T08:04:27.448Z,86.10
2022-10-01T08:07:31.899Z,86.17
2022-10-01T08:10:36.782Z,86.24
2022-10-01T08:13:40.037Z,86.30
2022-10-01T08:16:42.995Z,86.31
2022-10-01T08:19:45.909Z,86.34
2022-10-01T08:22:48.755Z,86.39
2022-10-01T08:25:51.685Z,86.45
2022-10-01T08:28:54.563Z,86.54
2022-10-01T08:31:58.508Z,86.53
2022-10-01T08:35:01.440Z,86.55
2022-10-01T08:38:05.794Z,86.60
2022-10-01T08:41:27.368Z,86.63
2022-10-01T08:44:41.244Z,86.66
2022-10-01T08:47:53.435Z,86.77
2022-10-01T08:51:04.969Z,86.84
2022-10-01T08:54:30.801Z,86.89
2022-10-01T08:57:43.514Z,86.98
2022-10-01T09:00:48.771Z,87.10
2022-10-01T09:03:51.898Z,87.22
2022-10-01T09:07:33.437Z,87.33
2022-10-01T09:10:53.268Z,87.43
2022-10-01T09:14:34.780Z,87.49
2022-10-01T09:17:56.300Z,87.54
2022-10-01T09:20:59.720Z,87.60
2022-10-01T09:24:22.653Z,87.65
2022-10-01T09:27:31.956Z,87.73
2022-10-01T09:30:36.582Z,87.80
2022-10-01T09:33:52.379Z,87.84
2022-10-01T09:37:49.156Z,87.91
2022-10-01T09:40:55.147Z,87.93
2022-10-01T09:43:58.190Z,87.90
2022-10-01T09:47:01.164Z,87.90
2022-10-01T09:50:06.506Z,87.94
2022-10-01T09:53:15.748Z,87.95
2022-10-01T09:56:29.027Z,87.93
2022-10-01T09:59:40.352Z,87.94
2022-10-01T10:02:49.088Z,87.93
2022-10-01T10:05:53.079Z,87.83
2022-10-01T10:08:58.343Z,87.82
2022-10-01T10:12:01.995Z,87.78
2022-10-01T10:15:16.610Z,87.77
2022-10-01T10:18:34.683Z,87.80
2022-10-01T10:21:37.944Z,87.70
2022-10-01T10:24:40.986Z,87.54
2022-10-01T10:27:55.131Z,87.48
2022-10-01T10:30:58.515Z,87.47
2022-10-01T10:34:15.849Z,87.47
2022-10-01T10:37:25.989Z,87.48
2022-10-01T10:40:43.025Z,87.49
2022-10-01T10:43:49.046Z,87.46
2022-10-01T10:46:54.785Z,87.26
2022-10-01T10:50:02.805Z,87.18
2022-10-01T10:53:44.098Z,87.07
2022-10-01T10:57:00.118Z,86.76
2022-10-01T11:00:17.689Z,86.83
2022-10-01T11:03:26.604Z,86.73
2022-10-01T11:06:30.493Z,86.63
2022-10-01T11:09:57.174Z,86.71
2022-10-01T11:13:15.513Z,86.50
2022-10-01T11:16:48.688Z,86.18
2022-10-01T11:20:11.613Z,85.78
2022-10-01T11:23:37.734Z,85.33
2022-10-01T11:27:27.376Z,84.84
2022-10-01T11:31:13.079Z,84.66
2022-10-01T11:34:31.091Z,84.59
2022-10-01T11:38:05.241Z,84.43
2022-10-01T11:41:31.330Z,84.40
2022-10-01T11:44:45.299Z,84.17
2022-10-01T11:47:58.054Z,83.98
2022-10-01T11:51:13.714Z,84.03
2022-10-01T11:54:25.335Z,84.04
2022-10-01T11:57:59.014Z,83.79
2022-10-01T12:01:10.244Z,83.53
2022-10-01T12:04:35.010Z,83.37
2022-10-01T12:07:47.243Z,83.23
2022-10-01T12:11:16.280Z,83.09
2022-10-01T12:14:27.786Z,83.00
2022-10-01T12:17:41.329Z,83.21
2022-10-01T12:21:07.817Z,83.06
2022-10-01T12:24:14.793Z,82.59
2022-10-01T12:27:39.927Z,82.37
2022-10-01T12:30:50.024Z,82.15
2022-10-01T12:34:22.575Z,81.92
2022-10-01T12:37:49.572Z,81.87
2022-10-01T12:41:04.472Z,81.83
2022-10-01T12:44:45.842Z,82.01
2022-10-01T12:48:07.193Z,82.31
2022-10-01T12:51:41.456Z,82.23
2022-10-01T12:54:50.214Z,82.44
2022-10-01T12:58:07.513Z,82.52
2022-10-01T13:01:19.213Z,82.59
2022-10-01T13:05:17.813Z,82.22
2022-10-01T13:08:34.539Z,82.16
2022-10-01T13:12:04.663Z,82.20
2022-10-01T13:15:15.577Z,82.31
2022-10-01T13:18:36.792Z,82.19
2022-10-01T13:21:57.835Z,82.24
2022-10-01T13:25:09.490Z,82.08
2022-10-01T13:28:20.390Z,81.92
2022-10-01T13:31:35.151Z,81.79
2022-10-01T13:34:41.703Z,81.91
2022-10-01T13:37:45.093Z,81.88
2022-10-01T13:40:57.814Z,81.99
2022-10-01T13:44:11.602Z,82.25
2022-10-01T13:47:20.425Z,82.39
2022-10-01T13:50:24.926Z,82.47
2022-10-01T13:53:29.794Z,82.64
2022-10-01T13:56:36.917Z,82.97
2022-10-01T13:59:40.184Z,83.15
2022-10-01T14:02:57.630Z,83.43
2022-10-01T14:06:03.860Z,83.61
2022-10-01T14:09:16.040Z,83.69
2022-10-01T14:12:43.414Z,83.71
2022-10-01T14:15:59.135Z,83.64
2022-10-01T14:19:02.535Z,83.64
2022-10-01T14:22:14.543Z,83.60
2022-10-01T14:25:29.139Z,83.61
2022-10-01T14:28:59.862Z,83.66
2022-10-01T14:32:21.443Z,83.58
2022-10-01T14:36:01.025Z,83.61
2022-10-01T14:39:24.456Z,83.73
2022-10-01T14:42:27.289Z,83.67
2022-10-01T14:45:30.539Z,83.67
2022-10-01T14:48:35.831Z,83.66
2022-10-01T14:51:50.493Z,83.71
2022-10-01T14:54:56.342Z,83.63
2022-10-01T14:57:59.285Z,83.63
2022-10-01T15:01:02.247Z,83.62
2022-10-01T15:04:14.889Z,83.62
2022-10-01T15:07:18.895Z,83.66
2022-10-01T15:10:26.441Z,83.61
2022-10-01T15:13:36.499Z,83.55
2022-10-01T15:16:39.770Z,83.67
2022-10-01T15:19:47.040Z,83.68
2022-10-01T15:22:58.999Z,83.64
2022-10-01T15:26:13.785Z,83.66
2022-10-01T15:29:17.820Z,83.59
2022-10-01T15:32:23.238Z,83.51
2022-10-01T15:35:26.366Z,83.40
2022-10-01T15:38:31.794Z,83.34
2022-10-01T15:41:34.887Z,83.42
2022-10-01T15:44:49.425Z,83.44
2022-10-01T15:47:56.857Z,83.43
2022-10-01T15:51:07.104Z,83.41
2022-10-01T15:54:15.586Z,83.44
2022-10-01T15:57:21.928Z,83.50
2022-10-01T16:00:28.085Z,83.55
2022-10-01T16:03:34.677Z,83.57
2022-10-01T16:06:39.250Z,83.57
2022-10-01T16:09:52.812Z,83.58
2022-10-01T16:12:55.680Z,83.59
2022-10-01T16:16:22.178Z,83.55
2022-10-01T16:19:34.862Z,83.49
2022-10-01T16:22:39.824Z,83.50
2022-10-01T16:25:45.918Z,83.40
2022-10-01T16:28:54.777Z,83.26
2022-10-01T16:31:57.960Z,83.19
2022-10-01T16:35:32.659Z,83.15
2022-10-01T16:38:36.826Z,83.07
2022-10-01T16:41:40.656Z,83.00
2022-10-01T16:44:43.527Z,83.01
2022-10-01T16:47:47.031Z,82.86
2022-10-01T16:50:53.608Z,82.76
2022-10-01T16:53:57.641Z,82.68
2022-10-01T16:57:02.059Z,82.69
2022-10-01T17:00:05.522Z,82.64
2022-10-01T17:03:15.744Z,82.72
2022-10-01T17:06:18.874Z,82.73
2022-10-01T17:09:22.278Z,82.70
2022-10-01T17:12:26.947Z,82.74
2022-10-01T17:15:31.126Z,82.79
2022-10-01T17:18:34.482Z,82.79
2022-10-01T17:21:37.583Z,82.77
2022-10-01T17:24:40.604Z,82.76
2022-10-01T17:27:46.205Z,82.81
2022-10-01T17:30:52.615Z,82.81
2022-10-01T17:33:55.487Z,82.79
2022-10-01T17:36:59.922Z,82.86
2022-10-01T17:40:04.160Z,82.88
2022-10-01T17:43:07.291Z,82.93
2022-10-01T17:46:10.375Z,82.99
2022-10-01T17:49:14.644Z,83.01
2022-10-01T17:52:19.070Z,82.96
2022-10-01T17:55:23.786Z,82.86
2022-10-01T17:58:26.921Z,82.17
2022-10-01T18:01:30.309Z,81.36
2022-10-01T18:04:34.499Z,80.80
2022-10-01T18:07:37.551Z,80.41
2022-10-01T18:10:40.544Z,80.09
2022-10-01T18:13:43.750Z,79.88
2022-10-01T18:16:46.740Z,79.75
2022-10-01T18:19:54.024Z,79.64
2022-10-01T18:22:57.799Z,79.63
2022-10-01T18:26:00.828Z,79.72
2022-10-01T18:29:06.142Z,79.70
2022-10-01T18:32:19.455Z,79.63
2022-10-01T18:35:34.348Z,79.61
2022-10-01T18:38:40.182Z,79.70
2022-10-01T18:41:47.681Z,79.71
2022-10-01T18:45:02.502Z,79.75
2022-10-01T18:48:50.744Z,79.73
2022-10-01T18:52:11.784Z,79.89
2022-10-01T18:55:32.728Z,80.05
2022-10-01T18:58:39.514Z,79.99
2022-10-01T19:01:58.601Z,79.99
2022-10-01T19:05:34.110Z,80.09
2022-10-01T19:08:57.591Z,80.12
2022-10-01T19:12:00.508Z,80.14
2022-10-01T19:15:43.920Z,80.13
2022-10-01T19:18:56.788Z,80.20
2022-10-01T19:22:03.081Z,80.31
2022-10-01T19:25:27.565Z,80.44
2022-10-01T19:29:04.260Z,80.46
2022-10-01T19:32:24.062Z,80.48
2022-10-01T19:35:32.593Z,80.53
2022-10-01T19:38:39.996Z,80.64
2022-10-01T19:41:49.216Z,80.67
2022-10-01T19:45:21.556Z,80.70
2022-10-01T19:48:46.550Z,80.80
2022-10-01T19:52:42.302Z,80.84
2022-10-01T19:55:47.096Z,80.94
2022-10-01T19:58:49.931Z,81.02
2022-10-01T20:02:03.516Z,81.06
2022-10-01T20:05:16.333Z,81.13
2022-10-01T20:08:27.755Z,81.25
2022-10-01T20:11:43.086Z,81.27
2022-10-01T20:15:16.013Z,81.28
2022-10-01T20:18:28.151Z,81.33
2022-10-01T20:21:51.594Z,81.34
2022-10-01T20:25:36.171Z,81.38
2022-10-01T20:29:13.476Z,81.42
2022-10-01T20:32:26.022Z,81.50
2022-10-01T20:35:37.947Z,81.54
2022-10-01T20:38:50.533Z,81.55
2022-10-01T20:41:56.374Z,81.52
2022-10-01T20:45:01.235Z,81.49
2022-10-01T20:48:13.030Z,81.45
2022-10-01T20:51:30.735Z,81.45
2022-10-01T20:54:42.625Z,81.42
2022-10-01T20:57:54.656Z,81.35
2022-10-01T21:01:08.241Z,81.33
2022-10-01T21:04:18.618Z,81.35
2022-10-01T21:07:41.507Z,81.36
2022-10-01T21:11:00.011Z,81.31
2022-10-01T21:14:15.337Z,81.24
2022-10-01T21:17:33.884Z,81.18
2022-10-01T21:20:51.774Z,81.11
2022-10-01T21:24:06.036Z,81.17
2022-10-01T21:27:14.750Z,81.15
2022-10-01T21:30:19.920Z,81.06
2022-10-01T21:33:44.548Z,81.01
2022-10-01T21:37:05.005Z,81.00
2022-10-01T21:40:28.026Z,81.03
2022-10-01T21:43:39.860Z,80.96
2022-10-01T21:47:23.524Z,80.92
2022-10-01T21:50:44.708Z,80.87
2022-10-01T21:54:17.375Z,80.91
2022-10-01T21:57:31.869Z,80.95
2022-10-01T22:00:34.803Z,80.98
2022-10-01T22:03:50.852Z,80.94
2022-10-01T22:07:02.369Z,80.93
2022-10-01T22:10:10.906Z,80.89
2022-10-01T22:13:25.286Z,80.94
2022-10-01T22:16:41.461Z,81.04
2022-10-01T22:19:53.766Z,81.09
2022-10-01T22:22:59.373Z,81.14
2022-10-01T22:26:11.111Z,81.12
2022-10-01T22:29:19.538Z,81.07
2022-10-01T22:32:26.087Z,81.10
2022-10-01T22:35:35.645Z,81.13
2022-10-01T22:38:54.455Z,81.17
2022-10-01T22:42:05.373Z,81.12
2022-10-01T22:45:17.677Z,81.10
2022-10-01T22:48:38.070Z,81.04
2022-10-01T22:52:22.943Z,81.06
2022-10-01T22:55:31.337Z,81.02
2022-10-01T22:58:45.456Z,81.02
2022-10-01T23:02:09.857Z,81.09
2022-10-01T23:06:08.862Z,81.10
2022-10-01T23:09:24.161Z,81.15
2022-10-01T23:12:47.144Z,81.20
2022-10-01T23:16:27.394Z,81.25
2022-10-01T23:19:53.867Z,81.28
2022-10-01T23:23:01.394Z,81.33
2022-10-01T23:26:04.254Z,81.32
2022-10-01T23:29:25.363Z,81.37
2022-10-01T23:32:41.834Z,81.29
2022-10-01T23:36:11.264Z,81.34
2022-10-01T23:39:35.456Z,81.39
2022-10-01T23:42:57.232Z,81.41
2022-10-01T23:46:17.747Z,81.46
2022-10-01T23:49:27.710Z,81.47
2022-10-01T23:52:38.730Z,81.51
2022-10-01T23:56:32.679Z,81.46
2022-10-01T23:59:49.964Z,81.52
